sensor_id;sensor_type;location;lat;lon;timestamp;P1;durP1;ratioP1;P2;durP2;ratioP2
16242;SDS011;11719;51.052;6.982;2023-05-23T00:02:04;4.53;;;3.07;;
16242;SDS011;11719;51.052;6.982;2023-05-23T00:04:32;3.90;;;3.03;;
16242;SDS011;11719;51.052;6.982;2023-05-23T00:07:01;4.10;;;2.63;;
16242;SDS011;11719;51.052;6.982;2023-05-23T00:09:27;5.80;;;3.63;;
16242;SDS011;11719;51.052;6.982;2023-05-23T00:11:53;3.50;;;2.57;;
16242;SDS011;11719;51.052;6.982;2023-05-23T00:14:19;5.50;;;3.40;;
16242;SDS011;11719;51.052;6.982;2023-05-23T00:16:45;6.10;;;3.67;;
16242;SDS011;11719;51.052;6.982;2023-05-23T00:19:13;5.40;;;3.30;;
16242;SDS011;11719;51.052;6.982;2023-05-23T00:21:40;5.17;;;3.00;;
16242;SDS011;11719;51.052;6.982;2023-05-23T00:24:14;6.20;;;2.80;;
16242;SDS011;11719;51.052;6.982;2023-05-23T00:26:43;6.10;;;3.33;;
16242;SDS011;11719;51.052;6.982;2023-05-23T00:29:09;5.47;;;3.30;;
16242;SDS011;11719;51.052;6.982;2023-05-23T00:31:43;4.93;;;3.07;;
16242;SDS011;11719;51.052;6.982;2023-05-23T00:34:13;4.83;;;3.57;;
16242;SDS011;11719;51.052;6.982;2023-05-23T00:36:43;6.67;;;3.53;;
16242;SDS011;11719;51.052;6.982;2023-05-23T00:39:11;4.17;;;3.40;;
16242;SDS011;11719;51.052;6.982;2023-05-23T00:41:52;6.07;;;3.13;;
16242;SDS011;11719;51.052;6.982;2023-05-23T00:44:18;5.47;;;3.57;;
16242;SDS011;11719;51.052;6.982;2023-05-23T00:46:46;5.17;;;3.03;;
16242;SDS011;11719;51.052;6.982;2023-05-23T00:49:15;5.20;;;3.60;;
16242;SDS011;11719;51.052;6.982;2023-05-23T00:51:44;7.23;;;4.17;;
16242;SDS011;11719;51.052;6.982;2023-05-23T00:54:10;6.17;;;3.40;;
16242;SDS011;11719;51.052;6.982;2023-05-23T00:56:37;7.07;;;3.70;;
16242;SDS011;11719;51.052;6.982;2023-05-23T00:59:09;6.17;;;3.57;;
16242;SDS011;11719;51.052;6.982;2023-05-23T01:01:53;9.17;;;3.60;;
16242;SDS011;11719;51.052;6.982;2023-05-23T01:04:26;6.00;;;3.60;;
16242;SDS011;11719;51.052;6.982;2023-05-23T01:07:09;5.83;;;3.50;;
16242;SDS011;11719;51.052;6.982;2023-05-23T01:09:36;7.13;;;3.63;;
16242;SDS011;11719;51.052;6.982;2023-05-23T01:12:10;5.80;;;3.20;;
16242;SDS011;11719;51.052;6.982;2023-05-23T01:15:05;6.47;;;3.37;;
16242;SDS011;11719;51.052;6.982;2023-05-23T01:17:43;6.87;;;4.07;;
16242;SDS011;11719;51.052;6.982;2023-05-23T01:20:49;6.20;;;3.57;;
16242;SDS011;11719;51.052;6.982;2023-05-23T01:26:30;5.23;;;3.47;;
16242;SDS011;11719;51.052;6.982;2023-05-23T01:29:18;4.73;;;2.60;;
16242;SDS011;11719;51.052;6.982;2023-05-23T01:32:00;4.50;;;2.90;;
16242;SDS011;11719;51.052;6.982;2023-05-23T01:34:31;3.80;;;2.80;;
16242;SDS011;11719;51.052;6.982;2023-05-23T01:36:59;4.87;;;2.63;;
16242;SDS011;11719;51.052;6.982;2023-05-23T01:39:25;4.63;;;2.67;;
16242;SDS011;11719;51.052;6.982;2023-05-23T01:41:51;3.73;;;2.00;;
16242;SDS011;11719;51.052;6.982;2023-05-23T01:44:17;3.23;;;2.53;;
16242;SDS011;11719;51.052;6.982;2023-05-23T01:46:44;4.00;;;3.13;;
16242;SDS011;11719;51.052;6.982;2023-05-23T01:49:11;6.70;;;3.40;;
16242;SDS011;11719;51.052;6.982;2023-05-23T01:51:38;3.87;;;2.80;;
16242;SDS011;11719;51.052;6.982;2023-05-23T01:54:05;3.30;;;2.13;;
16242;SDS011;11719;51.052;6.982;2023-05-23T01:56:32;2.67;;;2.43;;
16242;SDS011;11719;51.052;6.982;2023-05-23T01:58:58;3.93;;;2.97;;
16242;SDS011;11719;51.052;6.982;2023-05-23T02:01:25;4.10;;;2.63;;
16242;SDS011;11719;51.052;6.982;2023-05-23T02:03:51;2.70;;;2.13;;
16242;SDS011;11719;51.052;6.982;2023-05-23T02:06:17;4.00;;;2.00;;
16242;SDS011;11719;51.052;6.982;2023-05-23T02:08:43;3.37;;;2.20;;
16242;SDS011;11719;51.052;6.982;2023-05-23T02:11:09;2.27;;;1.83;;
16242;SDS011;11719;51.052;6.982;2023-05-23T02:13:35;4.13;;;1.70;;
16242;SDS011;11719;51.052;6.982;2023-05-23T02:16:01;3.00;;;2.50;;
16242;SDS011;11719;51.052;6.982;2023-05-23T02:18:28;2.93;;;1.97;;
16242;SDS011;11719;51.052;6.982;2023-05-23T02:20:54;2.10;;;1.60;;
16242;SDS011;11719;51.052;6.982;2023-05-23T02:23:20;2.63;;;1.60;;
16242;SDS011;11719;51.052;6.982;2023-05-23T02:25:46;3.47;;;1.57;;
16242;SDS011;11719;51.052;6.982;2023-05-23T02:28:12;2.63;;;1.70;;
16242;SDS011;11719;51.052;6.982;2023-05-23T02:30:38;3.97;;;1.97;;
16242;SDS011;11719;51.052;6.982;2023-05-23T02:33:05;1.67;;;1.17;;
16242;SDS011;11719;51.052;6.982;2023-05-23T02:35:32;2.17;;;1.70;;
16242;SDS011;11719;51.052;6.982;2023-05-23T02:37:58;5.73;;;1.90;;
16242;SDS011;11719;51.052;6.982;2023-05-23T02:40:24;4.30;;;1.67;;
16242;SDS011;11719;51.052;6.982;2023-05-23T02:42:50;2.07;;;1.80;;
16242;SDS011;11719;51.052;6.982;2023-05-23T02:45:16;2.50;;;1.60;;
16242;SDS011;11719;51.052;6.982;2023-05-23T02:47:42;2.57;;;1.77;;
16242;SDS011;11719;51.052;6.982;2023-05-23T02:50:08;2.90;;;1.80;;
16242;SDS011;11719;51.052;6.982;2023-05-23T02:52:35;3.63;;;2.00;;
16242;SDS011;11719;51.052;6.982;2023-05-23T02:55:00;1.87;;;1.50;;
16242;SDS011;11719;51.052;6.982;2023-05-23T02:57:26;2.30;;;1.80;;
16242;SDS011;11719;51.052;6.982;2023-05-23T02:59:52;3.50;;;1.73;;
16242;SDS011;11719;51.052;6.982;2023-05-23T03:02:18;2.80;;;1.80;;
16242;SDS011;11719;51.052;6.982;2023-05-23T03:04:43;3.33;;;2.00;;
16242;SDS011;11719;51.052;6.982;2023-05-23T03:07:10;1.70;;;1.60;;
16242;SDS011;11719;51.052;6.982;2023-05-23T03:09:37;5.47;;;1.90;;
16242;SDS011;11719;51.052;6.982;2023-05-23T03:12:03;3.30;;;2.00;;
16242;SDS011;11719;51.052;6.982;2023-05-23T03:14:30;4.43;;;2.00;;
16242;SDS011;11719;51.052;6.982;2023-05-23T03:16:55;3.67;;;2.00;;
16242;SDS011;11719;51.052;6.982;2023-05-23T03:19:22;3.30;;;2.30;;
16242;SDS011;11719;51.052;6.982;2023-05-23T03:21:48;5.70;;;2.27;;
16242;SDS011;11719;51.052;6.982;2023-05-23T03:24:15;4.67;;;2.07;;
16242;SDS011;11719;51.052;6.982;2023-05-23T03:26:41;2.37;;;1.73;;
16242;SDS011;11719;51.052;6.982;2023-05-23T03:29:06;2.60;;;2.07;;
16242;SDS011;11719;51.052;6.982;2023-05-23T03:31:34;2.53;;;1.90;;
16242;SDS011;11719;51.052;6.982;2023-05-23T03:34:01;2.70;;;2.10;;
16242;SDS011;11719;51.052;6.982;2023-05-23T03:36:29;4.17;;;2.50;;
16242;SDS011;11719;51.052;6.982;2023-05-23T03:38:58;7.23;;;2.30;;
16242;SDS011;11719;51.052;6.982;2023-05-23T03:41:24;4.00;;;2.50;;
16242;SDS011;11719;51.052;6.982;2023-05-23T03:43:50;6.37;;;3.13;;
16242;SDS011;11719;51.052;6.982;2023-05-23T03:46:16;5.67;;;2.63;;
16242;SDS011;11719;51.052;6.982;2023-05-23T03:48:42;6.30;;;3.30;;
16242;SDS011;11719;51.052;6.982;2023-05-23T03:51:08;4.33;;;2.90;;
16242;SDS011;11719;51.052;6.982;2023-05-23T03:53:35;6.40;;;3.50;;
16242;SDS011;11719;51.052;6.982;2023-05-23T03:56:00;4.00;;;2.80;;
16242;SDS011;11719;51.052;6.982;2023-05-23T03:58:26;3.87;;;2.90;;
16242;SDS011;11719;51.052;6.982;2023-05-23T04:00:52;6.53;;;3.30;;
16242;SDS011;11719;51.052;6.982;2023-05-23T04:03:28;5.20;;;2.77;;
16242;SDS011;11719;51.052;6.982;2023-05-23T04:05:57;3.87;;;2.53;;
16242;SDS011;11719;51.052;6.982;2023-05-23T04:08:25;5.83;;;3.00;;
16242;SDS011;11719;51.052;6.982;2023-05-23T04:10:51;5.13;;;2.13;;
16242;SDS011;11719;51.052;6.982;2023-05-23T04:13:16;5.03;;;2.60;;
16242;SDS011;11719;51.052;6.982;2023-05-23T04:15:43;5.27;;;2.67;;
16242;SDS011;11719;51.052;6.982;2023-05-23T04:18:09;2.83;;;2.17;;
16242;SDS011;11719;51.052;6.982;2023-05-23T04:20:35;4.67;;;2.53;;
16242;SDS011;11719;51.052;6.982;2023-05-23T04:23:01;3.17;;;1.73;;
16242;SDS011;11719;51.052;6.982;2023-05-23T04:25:27;5.00;;;2.30;;
16242;SDS011;11719;51.052;6.982;2023-05-23T04:27:52;4.53;;;2.10;;
16242;SDS011;11719;51.052;6.982;2023-05-23T04:30:19;3.40;;;1.97;;
16242;SDS011;11719;51.052;6.982;2023-05-23T04:32:46;3.27;;;1.80;;
16242;SDS011;11719;51.052;6.982;2023-05-23T04:35:12;4.20;;;2.03;;
16242;SDS011;11719;51.052;6.982;2023-05-23T04:37:38;2.97;;;2.13;;
16242;SDS011;11719;51.052;6.982;2023-05-23T04:40:04;6.40;;;2.50;;
16242;SDS011;11719;51.052;6.982;2023-05-23T04:42:31;3.30;;;2.27;;
16242;SDS011;11719;51.052;6.982;2023-05-23T04:44:57;4.67;;;2.17;;
16242;SDS011;11719;51.052;6.982;2023-05-23T04:47:23;3.00;;;2.03;;
16242;SDS011;11719;51.052;6.982;2023-05-23T04:49:53;4.47;;;2.30;;
16242;SDS011;11719;51.052;6.982;2023-05-23T04:52:20;3.70;;;2.33;;
16242;SDS011;11719;51.052;6.982;2023-05-23T04:54:46;4.73;;;2.27;;
16242;SDS011;11719;51.052;6.982;2023-05-23T04:57:12;2.90;;;2.30;;
16242;SDS011;11719;51.052;6.982;2023-05-23T04:59:38;3.00;;;2.37;;
16242;SDS011;11719;51.052;6.982;2023-05-23T05:02:04;5.67;;;2.67;;
16242;SDS011;11719;51.052;6.982;2023-05-23T05:04:30;4.67;;;2.97;;
16242;SDS011;11719;51.052;6.982;2023-05-23T05:06:56;5.00;;;2.17;;
16242;SDS011;11719;51.052;6.982;2023-05-23T05:09:22;3.80;;;2.03;;
16242;SDS011;11719;51.052;6.982;2023-05-23T05:11:48;3.77;;;2.60;;
16242;SDS011;11719;51.052;6.982;2023-05-23T05:14:15;5.60;;;2.60;;
16242;SDS011;11719;51.052;6.982;2023-05-23T05:16:41;4.27;;;1.90;;
16242;SDS011;11719;51.052;6.982;2023-05-23T05:19:07;5.57;;;2.90;;
16242;SDS011;11719;51.052;6.982;2023-05-23T05:21:33;4.90;;;2.80;;
16242;SDS011;11719;51.052;6.982;2023-05-23T05:23:59;4.70;;;2.73;;
16242;SDS011;11719;51.052;6.982;2023-05-23T05:26:25;10.60;;;2.70;;
16242;SDS011;11719;51.052;6.982;2023-05-23T05:28:51;3.83;;;2.20;;
16242;SDS011;11719;51.052;6.982;2023-05-23T05:31:17;3.17;;;2.20;;
16242;SDS011;11719;51.052;6.982;2023-05-23T05:33:43;5.67;;;2.47;;
16242;SDS011;11719;51.052;6.982;2023-05-23T05:36:09;6.30;;;2.60;;
16242;SDS011;11719;51.052;6.982;2023-05-23T05:38:35;4.63;;;2.87;;
16242;SDS011;11719;51.052;6.982;2023-05-23T05:41:01;4.17;;;2.77;;
16242;SDS011;11719;51.052;6.982;2023-05-23T05:43:27;4.03;;;2.33;;
16242;SDS011;11719;51.052;6.982;2023-05-23T05:45:53;4.67;;;2.77;;
16242;SDS011;11719;51.052;6.982;2023-05-23T05:48:19;6.40;;;2.83;;
16242;SDS011;11719;51.052;6.982;2023-05-23T05:50:45;6.73;;;3.27;;
16242;SDS011;11719;51.052;6.982;2023-05-23T05:53:10;6.47;;;3.13;;
16242;SDS011;11719;51.052;6.982;2023-05-23T05:55:37;7.53;;;3.00;;
16242;SDS011;11719;51.052;6.982;2023-05-23T05:58:03;5.20;;;2.93;;
16242;SDS011;11719;51.052;6.982;2023-05-23T06:00:29;7.50;;;3.23;;
16242;SDS011;11719;51.052;6.982;2023-05-23T06:02:55;4.97;;;2.43;;
16242;SDS011;11719;51.052;6.982;2023-05-23T06:05:21;6.93;;;3.40;;
16242;SDS011;11719;51.052;6.982;2023-05-23T06:07:48;4.37;;;3.03;;
16242;SDS011;11719;51.052;6.982;2023-05-23T06:10:15;3.60;;;2.40;;
16242;SDS011;11719;51.052;6.982;2023-05-23T06:12:41;4.80;;;2.87;;
16242;SDS011;11719;51.052;6.982;2023-05-23T06:15:07;4.93;;;3.50;;
16242;SDS011;11719;51.052;6.982;2023-05-23T06:17:34;7.93;;;3.37;;
16242;SDS011;11719;51.052;6.982;2023-05-23T06:19:59;6.60;;;3.77;;
16242;SDS011;11719;51.052;6.982;2023-05-23T06:22:25;4.30;;;3.23;;
16242;SDS011;11719;51.052;6.982;2023-05-23T06:24:51;5.87;;;3.70;;
16242;SDS011;11719;51.052;6.982;2023-05-23T06:27:17;7.53;;;3.23;;
16242;SDS011;11719;51.052;6.982;2023-05-23T06:29:43;6.20;;;3.43;;
16242;SDS011;11719;51.052;6.982;2023-05-23T06:32:09;6.93;;;3.67;;
16242;SDS011;11719;51.052;6.982;2023-05-23T06:34:34;8.93;;;4.00;;
16242;SDS011;11719;51.052;6.982;2023-05-23T06:37:00;5.80;;;3.13;;
16242;SDS011;11719;51.052;6.982;2023-05-23T06:39:26;11.47;;;4.03;;
16242;SDS011;11719;51.052;6.982;2023-05-23T06:41:52;6.00;;;3.40;;
16242;SDS011;11719;51.052;6.982;2023-05-23T06:44:18;4.73;;;2.57;;
16242;SDS011;11719;51.052;6.982;2023-05-23T06:46:44;6.00;;;3.10;;
16242;SDS011;11719;51.052;6.982;2023-05-23T06:49:11;4.93;;;3.17;;
16242;SDS011;11719;51.052;6.982;2023-05-23T06:51:37;5.80;;;3.97;;
16242;SDS011;11719;51.052;6.982;2023-05-23T06:54:03;4.50;;;3.30;;
16242;SDS011;11719;51.052;6.982;2023-05-23T06:56:29;6.57;;;3.43;;
16242;SDS011;11719;51.052;6.982;2023-05-23T06:58:54;3.93;;;2.70;;
16242;SDS011;11719;51.052;6.982;2023-05-23T07:01:20;8.33;;;3.80;;
16242;SDS011;11719;51.052;6.982;2023-05-23T07:03:46;7.47;;;4.10;;
16242;SDS011;11719;51.052;6.982;2023-05-23T07:06:12;6.50;;;3.63;;
16242;SDS011;11719;51.052;6.982;2023-05-23T07:08:37;7.13;;;3.97;;
16242;SDS011;11719;51.052;6.982;2023-05-23T07:11:04;5.53;;;3.87;;
16242;SDS011;11719;51.052;6.982;2023-05-23T07:13:30;6.93;;;4.37;;
16242;SDS011;11719;51.052;6.982;2023-05-23T07:15:57;7.60;;;4.17;;
16242;SDS011;11719;51.052;6.982;2023-05-23T07:18:23;6.87;;;4.97;;
16242;SDS011;11719;51.052;6.982;2023-05-23T07:20:48;6.13;;;4.77;;
16242;SDS011;11719;51.052;6.982;2023-05-23T07:23:15;6.70;;;3.73;;
16242;SDS011;11719;51.052;6.982;2023-05-23T07:25:41;6.70;;;4.60;;
16242;SDS011;11719;51.052;6.982;2023-05-23T07:28:08;6.57;;;4.33;;
16242;SDS011;11719;51.052;6.982;2023-05-23T07:30:34;6.17;;;4.80;;
16242;SDS011;11719;51.052;6.982;2023-05-23T07:33:00;6.20;;;4.30;;
16242;SDS011;11719;51.052;6.982;2023-05-23T07:35:26;6.70;;;4.27;;
16242;SDS011;11719;51.052;6.982;2023-05-23T07:37:52;9.27;;;4.57;;
16242;SDS011;11719;51.052;6.982;2023-05-23T07:40:18;5.63;;;4.13;;
16242;SDS011;11719;51.052;6.982;2023-05-23T07:42:45;5.30;;;3.47;;
16242;SDS011;11719;51.052;6.982;2023-05-23T07:45:11;7.03;;;3.80;;
16242;SDS011;11719;51.052;6.982;2023-05-23T07:47:37;5.63;;;3.57;;
16242;SDS011;11719;51.052;6.982;2023-05-23T07:50:04;6.00;;;4.17;;
16242;SDS011;11719;51.052;6.982;2023-05-23T07:52:31;6.63;;;4.07;;
16242;SDS011;11719;51.052;6.982;2023-05-23T07:54:57;8.60;;;5.60;;
16242;SDS011;11719;51.052;6.982;2023-05-23T07:57:23;6.33;;;4.37;;
16242;SDS011;11719;51.052;6.982;2023-05-23T07:59:50;7.63;;;4.80;;
16242;SDS011;11719;51.052;6.982;2023-05-23T08:02:16;6.37;;;3.80;;
16242;SDS011;11719;51.052;6.982;2023-05-23T08:04:42;6.40;;;3.77;;
16242;SDS011;11719;51.052;6.982;2023-05-23T08:07:09;4.57;;;3.57;;
16242;SDS011;11719;51.052;6.982;2023-05-23T08:09:35;9.90;;;4.00;;
16242;SDS011;11719;51.052;6.982;2023-05-23T08:12:03;5.17;;;3.40;;
16242;SDS011;11719;51.052;6.982;2023-05-23T08:14:29;8.13;;;4.97;;
16242;SDS011;11719;51.052;6.982;2023-05-23T08:16:55;10.57;;;4.20;;
16242;SDS011;11719;51.052;6.982;2023-05-23T08:19:21;6.70;;;3.23;;
16242;SDS011;11719;51.052;6.982;2023-05-23T08:21:47;7.27;;;4.83;;
16242;SDS011;11719;51.052;6.982;2023-05-23T08:24:13;7.50;;;4.63;;
16242;SDS011;11719;51.052;6.982;2023-05-23T08:26:39;5.47;;;2.83;;
16242;SDS011;11719;51.052;6.982;2023-05-23T08:29:06;6.27;;;4.43;;
16242;SDS011;11719;51.052;6.982;2023-05-23T08:31:34;7.30;;;4.20;;
16242;SDS011;11719;51.052;6.982;2023-05-23T08:34:00;4.67;;;2.97;;
16242;SDS011;11719;51.052;6.982;2023-05-23T08:36:26;3.93;;;2.73;;
16242;SDS011;11719;51.052;6.982;2023-05-23T08:38:52;8.00;;;2.90;;
16242;SDS011;11719;51.052;6.982;2023-05-23T08:41:19;5.63;;;2.70;;
16242;SDS011;11719;51.052;6.982;2023-05-23T08:43:50;4.10;;;2.57;;
16242;SDS011;11719;51.052;6.982;2023-05-23T08:46:16;7.50;;;2.90;;
16242;SDS011;11719;51.052;6.982;2023-05-23T08:48:42;4.97;;;2.33;;
16242;SDS011;11719;51.052;6.982;2023-05-23T08:51:16;4.77;;;3.00;;
16242;SDS011;11719;51.052;6.982;2023-05-23T08:53:44;9.70;;;3.97;;
16242;SDS011;11719;51.052;6.982;2023-05-23T08:56:12;5.13;;;3.33;;
16242;SDS011;11719;51.052;6.982;2023-05-23T09:01:08;9.60;;;5.60;;
16242;SDS011;11719;51.052;6.982;2023-05-23T09:03:36;10.93;;;6.97;;
16242;SDS011;11719;51.052;6.982;2023-05-23T09:06:02;16.30;;;7.40;;
16242;SDS011;11719;51.052;6.982;2023-05-23T09:08:31;7.60;;;4.77;;
16242;SDS011;11719;51.052;6.982;2023-05-23T09:10:57;11.90;;;5.93;;
16242;SDS011;11719;51.052;6.982;2023-05-23T09:13:23;10.03;;;6.13;;
16242;SDS011;11719;51.052;6.982;2023-05-23T09:18:26;14.93;;;5.47;;
16242;SDS011;11719;51.052;6.982;2023-05-23T09:20:58;6.43;;;4.80;;
16242;SDS011;11719;51.052;6.982;2023-05-23T09:23:24;5.40;;;3.70;;
16242;SDS011;11719;51.052;6.982;2023-05-23T09:25:50;6.50;;;3.43;;
16242;SDS011;11719;51.052;6.982;2023-05-23T09:28:17;10.07;;;6.10;;
16242;SDS011;11719;51.052;6.982;2023-05-23T09:30:42;5.93;;;4.07;;
16242;SDS011;11719;51.052;6.982;2023-05-23T09:33:08;9.80;;;4.83;;
16242;SDS011;11719;51.052;6.982;2023-05-23T09:35:36;6.83;;;4.23;;
16242;SDS011;11719;51.052;6.982;2023-05-23T09:38:10;9.63;;;6.10;;
16242;SDS011;11719;51.052;6.982;2023-05-23T09:40:36;12.27;;;7.07;;
16242;SDS011;11719;51.052;6.982;2023-05-23T09:43:02;12.30;;;6.60;;
16242;SDS011;11719;51.052;6.982;2023-05-23T09:45:30;7.83;;;4.70;;
16242;SDS011;11719;51.052;6.982;2023-05-23T09:47:56;6.00;;;3.77;;
16242;SDS011;11719;51.052;6.982;2023-05-23T09:50:23;21.83;;;10.33;;
16242;SDS011;11719;51.052;6.982;2023-05-23T09:52:50;13.87;;;7.80;;
16242;SDS011;11719;51.052;6.982;2023-05-23T09:55:18;12.80;;;5.97;;
16242;SDS011;11719;51.052;6.982;2023-05-23T09:57:44;7.17;;;4.43;;
16242;SDS011;11719;51.052;6.982;2023-05-23T10:00:17;7.30;;;5.17;;
16242;SDS011;11719;51.052;6.982;2023-05-23T10:08:17;9.00;;;5.00;;
16242;SDS011;11719;51.052;6.982;2023-05-23T10:13:24;10.10;;;6.57;;
16242;SDS011;11719;51.052;6.982;2023-05-23T10:15:54;12.10;;;7.10;;
16242;SDS011;11719;51.052;6.982;2023-05-23T10:18:28;9.13;;;5.20;;
16242;SDS011;11719;51.052;6.982;2023-05-23T10:20:56;6.67;;;4.10;;
16242;SDS011;11719;51.052;6.982;2023-05-23T10:23:32;8.80;;;5.30;;
16242;SDS011;11719;51.052;6.982;2023-05-23T10:25:58;13.53;;;6.50;;
16242;SDS011;11719;51.052;6.982;2023-05-23T10:28:25;9.43;;;6.47;;
16242;SDS011;11719;51.052;6.982;2023-05-23T10:30:51;11.20;;;6.47;;
16242;SDS011;11719;51.052;6.982;2023-05-23T10:33:17;11.30;;;6.23;;
16242;SDS011;11719;51.052;6.982;2023-05-23T10:35:49;10.87;;;6.27;;
16242;SDS011;11719;51.052;6.982;2023-05-23T10:39:12;13.43;;;7.87;;
16242;SDS011;11719;51.052;6.982;2023-05-23T10:46:54;8.13;;;5.23;;
16242;SDS011;11719;51.052;6.982;2023-05-23T10:49:41;14.93;;;8.63;;
16242;SDS011;11719;51.052;6.982;2023-05-23T10:52:09;14.93;;;8.90;;
16242;SDS011;11719;51.052;6.982;2023-05-23T10:57:21;17.40;;;8.20;;
16242;SDS011;11719;51.052;6.982;2023-05-23T10:59:51;10.03;;;6.33;;
16242;SDS011;11719;51.052;6.982;2023-05-23T11:02:18;18.27;;;10.20;;
16242;SDS011;11719;51.052;6.982;2023-05-23T11:05:32;16.10;;;9.10;;
16242;SDS011;11719;51.052;6.982;2023-05-23T11:08:09;14.07;;;8.90;;
16242;SDS011;11719;51.052;6.982;2023-05-23T11:10:58;15.07;;;7.60;;
16242;SDS011;11719;51.052;6.982;2023-05-23T11:13:53;12.63;;;6.60;;
16242;SDS011;11719;51.052;6.982;2023-05-23T11:16:29;10.90;;;6.33;;
16242;SDS011;11719;51.052;6.982;2023-05-23T11:21:44;29.10;;;8.97;;
16242;SDS011;11719;51.052;6.982;2023-05-23T11:24:15;12.83;;;7.37;;
16242;SDS011;11719;51.052;6.982;2023-05-23T11:26:53;22.80;;;10.47;;
16242;SDS011;11719;51.052;6.982;2023-05-23T11:29:28;19.73;;;7.73;;
16242;SDS011;11719;51.052;6.982;2023-05-23T11:31:55;13.20;;;7.93;;
16242;SDS011;11719;51.052;6.982;2023-05-23T11:34:24;19.67;;;11.30;;
16242;SDS011;11719;51.052;6.982;2023-05-23T11:36:52;14.30;;;8.10;;
16242;SDS011;11719;51.052;6.982;2023-05-23T11:39:21;15.93;;;9.40;;
16242;SDS011;11719;51.052;6.982;2023-05-23T11:42:00;13.03;;;7.07;;
16242;SDS011;11719;51.052;6.982;2023-05-23T11:44:27;12.63;;;7.00;;
16242;SDS011;11719;51.052;6.982;2023-05-23T11:47:03;16.90;;;8.17;;
16242;SDS011;11719;51.052;6.982;2023-05-23T11:49:33;13.97;;;7.50;;
16242;SDS011;11719;51.052;6.982;2023-05-23T11:52:01;10.50;;;6.50;;
16242;SDS011;11719;51.052;6.982;2023-05-23T11:54:28;11.07;;;6.00;;
16242;SDS011;11719;51.052;6.982;2023-05-23T11:56:54;10.60;;;6.30;;
16242;SDS011;11719;51.052;6.982;2023-05-23T11:59:23;10.57;;;6.60;;
16242;SDS011;11719;51.052;6.982;2023-05-23T12:01:50;9.90;;;6.53;;
16242;SDS011;11719;51.052;6.982;2023-05-23T12:04:17;13.03;;;6.50;;
16242;SDS011;11719;51.052;6.982;2023-05-23T12:06:46;13.13;;;6.47;;
16242;SDS011;11719;51.052;6.982;2023-05-23T12:09:14;10.10;;;6.03;;
16242;SDS011;11719;51.052;6.982;2023-05-23T12:11:41;11.30;;;5.87;;
16242;SDS011;11719;51.052;6.982;2023-05-23T12:14:08;11.03;;;6.13;;
16242;SDS011;11719;51.052;6.982;2023-05-23T12:16:42;9.17;;;5.77;;
16242;SDS011;11719;51.052;6.982;2023-05-23T12:19:12;12.07;;;7.27;;
16242;SDS011;11719;51.052;6.982;2023-05-23T12:21:40;9.20;;;6.63;;
16242;SDS011;11719;51.052;6.982;2023-05-23T12:24:11;9.13;;;6.60;;
16242;SDS011;11719;51.052;6.982;2023-05-23T12:29:14;8.13;;;5.40;;
16242;SDS011;11719;51.052;6.982;2023-05-23T12:31:40;11.87;;;6.40;;
16242;SDS011;11719;51.052;6.982;2023-05-23T12:34:06;11.27;;;6.43;;
16242;SDS011;11719;51.052;6.982;2023-05-23T12:36:32;10.23;;;6.60;;
16242;SDS011;11719;51.052;6.982;2023-05-23T12:39:02;11.20;;;6.80;;
16242;SDS011;11719;51.052;6.982;2023-05-23T12:41:30;9.27;;;5.80;;
16242;SDS011;11719;51.052;6.982;2023-05-23T12:44:00;8.60;;;5.60;;
16242;SDS011;11719;51.052;6.982;2023-05-23T12:46:27;7.80;;;4.80;;
16242;SDS011;11719;51.052;6.982;2023-05-23T12:48:53;8.37;;;4.37;;
16242;SDS011;11719;51.052;6.982;2023-05-23T12:51:19;7.53;;;4.53;;
16242;SDS011;11719;51.052;6.982;2023-05-23T12:53:45;7.13;;;4.10;;
16242;SDS011;11719;51.052;6.982;2023-05-23T12:56:12;8.47;;;4.73;;
16242;SDS011;11719;51.052;6.982;2023-05-23T12:58:37;8.07;;;5.40;;
16242;SDS011;11719;51.052;6.982;2023-05-23T13:01:03;8.00;;;5.20;;
16242;SDS011;11719;51.052;6.982;2023-05-23T13:03:29;8.03;;;5.40;;
16242;SDS011;11719;51.052;6.982;2023-05-23T13:05:56;9.97;;;5.30;;
16242;SDS011;11719;51.052;6.982;2023-05-23T13:08:25;8.17;;;4.97;;
16242;SDS011;11719;51.052;6.982;2023-05-23T13:10:54;5.93;;;4.37;;
16242;SDS011;11719;51.052;6.982;2023-05-23T13:13:21;6.57;;;4.60;;
16242;SDS011;11719;51.052;6.982;2023-05-23T13:15:47;8.03;;;4.77;;
16242;SDS011;11719;51.052;6.982;2023-05-23T13:18:13;8.37;;;4.57;;
16242;SDS011;11719;51.052;6.982;2023-05-23T13:20:39;8.07;;;3.97;;
16242;SDS011;11719;51.052;6.982;2023-05-23T13:23:06;10.43;;;6.77;;
16242;SDS011;11719;51.052;6.982;2023-05-23T13:25:33;11.27;;;6.33;;
16242;SDS011;11719;51.052;6.982;2023-05-23T13:28:00;11.03;;;5.67;;
16242;SDS011;11719;51.052;6.982;2023-05-23T13:30:26;10.40;;;5.27;;
16242;SDS011;11719;51.052;6.982;2023-05-23T13:32:53;6.57;;;4.50;;
16242;SDS011;11719;51.052;6.982;2023-05-23T13:35:19;4.93;;;4.30;;
16242;SDS011;11719;51.052;6.982;2023-05-23T13:37:45;8.67;;;4.90;;
16242;SDS011;11719;51.052;6.982;2023-05-23T13:40:11;8.17;;;3.77;;
16242;SDS011;11719;51.052;6.982;2023-05-23T13:42:42;9.80;;;4.87;;
16242;SDS011;11719;51.052;6.982;2023-05-23T13:45:08;7.67;;;4.67;;
16242;SDS011;11719;51.052;6.982;2023-05-23T13:47:35;9.10;;;4.67;;
16242;SDS011;11719;51.052;6.982;2023-05-23T13:50:02;9.37;;;5.70;;
16242;SDS011;11719;51.052;6.982;2023-05-23T13:52:29;7.37;;;5.23;;
16242;SDS011;11719;51.052;6.982;2023-05-23T13:54:55;8.37;;;4.87;;
16242;SDS011;11719;51.052;6.982;2023-05-23T13:57:21;11.33;;;5.67;;
16242;SDS011;11719;51.052;6.982;2023-05-23T13:59:46;7.53;;;5.70;;
16242;SDS011;11719;51.052;6.982;2023-05-23T14:02:12;7.23;;;4.73;;
16242;SDS011;11719;51.052;6.982;2023-05-23T14:04:38;8.30;;;4.63;;
16242;SDS011;11719;51.052;6.982;2023-05-23T14:07:04;7.23;;;4.33;;
16242;SDS011;11719;51.052;6.982;2023-05-23T14:09:30;7.70;;;4.77;;
16242;SDS011;11719;51.052;6.982;2023-05-23T14:11:56;8.17;;;5.07;;
16242;SDS011;11719;51.052;6.982;2023-05-23T14:14:22;5.97;;;4.60;;
16242;SDS011;11719;51.052;6.982;2023-05-23T14:16:51;8.20;;;5.27;;
16242;SDS011;11719;51.052;6.982;2023-05-23T14:19:18;5.97;;;5.37;;
16242;SDS011;11719;51.052;6.982;2023-05-23T14:21:45;5.00;;;4.50;;
16242;SDS011;11719;51.052;6.982;2023-05-23T14:24:11;6.07;;;4.40;;
16242;SDS011;11719;51.052;6.982;2023-05-23T14:26:37;10.63;;;4.93;;
16242;SDS011;11719;51.052;6.982;2023-05-23T14:29:02;9.63;;;4.27;;
16242;SDS011;11719;51.052;6.982;2023-05-23T14:31:28;5.80;;;4.60;;
16242;SDS011;11719;51.052;6.982;2023-05-23T14:33:54;8.53;;;4.90;;
16242;SDS011;11719;51.052;6.982;2023-05-23T14:36:21;6.00;;;4.13;;
16242;SDS011;11719;51.052;6.982;2023-05-23T14:38:46;5.97;;;4.40;;
16242;SDS011;11719;51.052;6.982;2023-05-23T14:41:15;6.33;;;4.23;;
16242;SDS011;11719;51.052;6.982;2023-05-23T14:43:41;8.17;;;4.57;;
16242;SDS011;11719;51.052;6.982;2023-05-23T14:46:07;6.07;;;3.87;;
16242;SDS011;11719;51.052;6.982;2023-05-23T14:48:33;4.70;;;4.00;;
16242;SDS011;11719;51.052;6.982;2023-05-23T14:50:59;6.53;;;4.57;;
16242;SDS011;11719;51.052;6.982;2023-05-23T14:53:25;5.57;;;4.80;;
16242;SDS011;11719;51.052;6.982;2023-05-23T14:55:52;9.93;;;5.53;;
16242;SDS011;11719;51.052;6.982;2023-05-23T14:58:18;10.43;;;4.67;;
16242;SDS011;11719;51.052;6.982;2023-05-23T15:00:45;6.93;;;4.90;;
16242;SDS011;11719;51.052;6.982;2023-05-23T15:03:12;8.43;;;5.10;;
16242;SDS011;11719;51.052;6.982;2023-05-23T15:05:38;6.17;;;5.00;;
16242;SDS011;11719;51.052;6.982;2023-05-23T15:08:04;6.73;;;4.90;;
16242;SDS011;11719;51.052;6.982;2023-05-23T15:10:30;7.43;;;5.00;;
16242;SDS011;11719;51.052;6.982;2023-05-23T15:12:56;6.00;;;4.37;;
16242;SDS011;11719;51.052;6.982;2023-05-23T15:15:22;5.70;;;4.00;;
16242;SDS011;11719;51.052;6.982;2023-05-23T15:17:49;6.90;;;4.13;;
16242;SDS011;11719;51.052;6.982;2023-05-23T15:20:15;7.00;;;4.87;;